Time;durP1;ratioP1;P1;durP2;ratioP2;P2;SDS_P1;SDS_P2;PMS_P1;PMS_P2;Temp;Humidity;BMP_temperature;BMP_pressure;BME280_temperature;BME280_humidity;BME280_pressure;Samples;Min_cycle;Max_cycle;Signal;HPM_P1;HPM_P2
2022/09/26 00:01:48;;;;;;;;;;;22.40;45.50;21.30;100485.00;;;;5084477;28;19917;-70
2022/09/26 00:04:34;;;;;;;;;;;22.50;45.50;21.30;100478.00;;;;5068117;28;20282;-70
2022/09/26 00:07:20;;;;;;;;;;;22.50;45.60;21.20;100473.00;;;;5089004;28;20350;-71
2022/09/26 00:10:06;;;;;;;;;;;22.40;45.50;21.20;100464.00;;;;5084395;28;20199;-71
2022/09/26 00:12:54;;;;;;;;;;;22.40;45.40;21.20;100467.00;;;;5085010;28;19916;-71
2022/09/26 00:15:40;;;;;;;;;;;22.40;45.50;21.20;100460.00;;;;5077612;28;20353;-71
2022/09/26 00:18:26;;;;;;;;;;;22.40;45.50;21.20;100452.00;;;;5084011;28;20366;-71
2022/09/26 00:21:12;;;;;;;;;;;22.50;45.50;21.20;100456.00;;;;5085380;28;19916;-71
2022/09/26 00:23:59;;;;;;;;;;;22.40;46.10;21.20;100451.00;;;;5105195;27;19924;-71
2022/09/26 00:26:45;;;;;;;;;;;22.40;45.40;21.20;100448.00;;;;5081060;28;19943;-71
2022/09/26 00:29:31;;;;;;;;;;;22.40;45.40;21.20;100442.00;;;;5075582;28;20370;-71
2022/09/26 00:32:17;;;;;;;;;;;22.40;45.40;21.20;100431.00;;;;5077857;28;19927;-71
2022/09/26 00:35:03;;;;;;;;;;;22.40;45.40;21.20;100428.00;;;;5079956;28;19927;-71
2022/09/26 00:37:49;;;;;;;;;;;22.40;45.50;21.20;100421.00;;;;5078141;28;19927;-71
2022/09/26 00:40:35;;;;;;;;;;;22.40;45.40;21.20;100413.00;;;;5078858;28;19923;-71
2022/09/26 00:43:35;;;;;;;;;;;22.40;45.40;21.20;100422.00;;;;5071373;28;19921;-71
2022/09/26 00:46:24;;;;;;;;;;;22.40;45.50;21.20;100420.00;;;;5085285;27;19927;-71
2022/09/26 00:49:29;;;;;;;;;;;22.50;45.50;21.20;100417.00;;;;5080394;28;19916;-71
2022/09/26 00:52:31;;;;;;;;;;;22.40;45.50;21.20;100405.00;;;;5077985;28;20281;-71
2022/09/26 00:55:19;;;;;;;;;;;22.40;45.50;21.20;100400.00;;;;5077151;28;20014;-71
2022/09/26 00:58:16;;;;;;;;;;;22.40;45.50;21.20;100396.00;;;;5092023;27;20387;-71
2022/09/26 01:01:02;;;;;;;;;;;22.40;45.50;21.20;100393.00;;;;5090980;28;19915;-71
2022/09/26 01:03:48;;;;;;;;;;;22.40;45.50;21.20;100397.00;;;;5080397;28;20003;-71
2022/09/26 01:06:34;;;;;;;;;;;22.40;45.50;21.20;100398.00;;;;5084916;27;20400;-71
2022/09/26 01:09:20;;;;;;;;;;;22.40;45.40;21.20;100383.00;;;;5091509;27;19917;-71
2022/09/26 01:12:07;;;;;;;;;;;22.40;45.40;21.20;100381.00;;;;5077292;28;19916;-71
2022/09/26 01:14:53;;;;;;;;;;;22.40;45.40;21.20;100375.00;;;;5079266;28;20448;-71
2022/09/26 01:17:40;;;;;;;;;;;22.40;45.40;21.20;100374.00;;;;5089031;28;19920;-71
2022/09/26 01:20:28;;;;;;;;;;;22.40;45.50;21.20;100361.00;;;;5088029;28;19924;-71
2022/09/26 01:23:45;;;;;;;;;;;22.40;45.40;21.20;100361.00;;;;5082076;28;19920;-71
2022/09/26 01:27:08;;;;;;;;;;;22.40;45.50;21.20;100351.00;;;;5076482;28;20026;-71
2022/09/26 01:30:11;;;;;;;;;;;22.40;45.40;21.20;100335.00;;;;5097080;27;20409;-71
2022/09/26 01:33:16;;;;;;;;;;;22.40;45.40;21.20;100335.00;;;;5079864;28;19924;-71
2022/09/26 01:36:17;;;;;;;;;;;22.40;45.50;21.20;100339.00;;;;5075217;28;19966;-71
2022/09/26 01:39:28;;;;;;;;;;;22.30;45.40;21.20;100338.00;;;;5084133;28;20029;-70
2022/09/26 01:42:21;;;;;;;;;;;22.40;45.50;21.20;100330.00;;;;5075506;28;20292;-71
2022/09/26 01:45:17;;;;;;;;;;;22.40;45.50;21.20;100333.00;;;;5077108;28;20047;-71
2022/09/26 01:48:17;;;;;;;;;;;22.40;45.50;21.20;100321.00;;;;5084268;28;19924;-71
2022/09/26 01:51:12;;;;;;;;;;;22.40;45.50;21.20;100319.00;;;;5076244;28;19917;-71
2022/09/26 01:54:05;;;;;;;;;;;22.40;45.50;21.20;100314.00;;;;5078978;28;19990;-71
2022/09/26 01:56:51;;;;;;;;;;;22.40;45.50;21.20;100311.00;;;;5091122;28;19917;-71
2022/09/26 01:59:42;;;;;;;;;;;22.40;45.50;21.20;100304.00;;;;5076282;28;19916;-71
2022/09/26 02:02:30;;;;;;;;;;;22.40;45.50;21.20;100296.00;;;;5049168;28;19920;-71
2022/09/26 02:05:33;;;;;;;;;;;22.40;45.50;21.20;100298.00;;;;5073889;28;19971;-71
2022/09/26 02:08:25;;;;;;;;;;;22.40;45.50;21.20;100294.00;;;;5091997;28;19920;-71
2022/09/26 02:11:12;;;;;;;;;;;22.40;45.50;21.20;100280.00;;;;5059987;28;19970;-71
2022/09/26 02:14:03;;;;;;;;;;;22.40;45.50;21.20;100280.00;;;;5084907;28;20104;-71
2022/09/26 02:16:50;;;;;;;;;;;22.40;45.50;21.20;100268.00;;;;5067118;28;20385;-71
2022/09/26 02:19:55;;;;;;;;;;;22.40;45.50;21.20;100267.00;;;;5081419;28;19979;-71
2022/09/26 02:22:41;;;;;;;;;;;22.40;45.50;21.20;100262.00;;;;5087300;28;20015;-71
2022/09/26 02:25:27;;;;;;;;;;;22.40;45.50;21.10;100255.00;;;;5076732;28;20351;-71
2022/09/26 02:28:14;;;;;;;;;;;22.40;45.50;21.10;100258.00;;;;5085714;28;19917;-71
2022/09/26 02:31:01;;;;;;;;;;;22.40;45.50;21.10;100244.00;;;;5088180;28;19924;-71
2022/09/26 02:33:48;;;;;;;;;;;22.40;45.50;21.10;100238.00;;;;5082823;28;19924;-71
2022/09/26 02:36:34;;;;;;;;;;;22.40;45.50;21.10;100233.00;;;;5074845;28;19924;-71
2022/09/26 02:39:20;;;;;;;;;;;22.30;45.40;21.10;100226.00;;;;5077701;28;20389;-71
2022/09/26 02:42:29;;;;;;;;;;;22.40;45.50;21.10;100223.00;;;;5077498;28;19943;-71
2022/09/26 02:45:31;;;;;;;;;;;22.40;45.50;21.10;100219.00;;;;5052209;28;20228;-71
2022/09/26 02:48:36;;;;;;;;;;;22.30;45.40;21.10;100210.00;;;;5068103;28;19916;-71
2022/09/26 02:51:30;;;;;;;;;;;22.30;45.40;21.10;100204.00;;;;5074610;28;20486;-71
2022/09/26 02:54:38;;;;;;;;;;;22.30;45.40;21.10;100203.00;;;;5085230;28;20377;-71
2022/09/26 02:57:31;;;;;;;;;;;22.30;45.40;21.10;100199.00;;;;5086363;28;20162;-71
2022/09/26 03:00:25;;;;;;;;;;;22.30;45.40;21.10;100197.00;;;;5058788;28;19916;-71
2022/09/26 03:03:23;;;;;;;;;;;22.30;45.40;21.10;100194.00;;;;5062502;28;19924;-71
2022/09/26 03:06:11;;;;;;;;;;;22.30;45.50;21.10;100190.00;;;;5089263;28;19916;-70
2022/09/26 03:08:57;;;;;;;;;;;22.30;45.40;21.10;100188.00;;;;5106523;28;20288;-71
2022/09/26 03:11:43;;;;;;;;;;;22.30;45.40;21.10;100179.00;;;;5058232;28;19923;-71
2022/09/26 03:14:29;;;;;;;;;;;22.30;45.40;21.10;100177.00;;;;5090709;28;19920;-71
2022/09/26 03:17:17;;;;;;;;;;;22.40;45.50;21.10;100173.00;;;;5077223;28;20420;-71
2022/09/26 03:20:10;;;;;;;;;;;22.30;45.50;21.10;100168.00;;;;5081744;28;19920;-71
2022/09/26 03:22:56;;;;;;;;;;;22.30;45.50;21.10;100161.00;;;;5057446;28;20328;-71
2022/09/26 03:25:42;;;;;;;;;;;22.30;45.50;21.10;100146.00;;;;5085084;28;20630;-71
2022/09/26 03:28:28;;;;;;;;;;;22.30;45.40;21.10;100139.00;;;;5068485;28;19920;-71
2022/09/26 03:31:13;;;;;;;;;;;22.30;45.40;21.10;100137.00;;;;5080203;28;20003;-71
2022/09/26 03:33:59;;;;;;;;;;;22.30;45.50;21.10;100130.00;;;;5082509;28;19916;-71
2022/09/26 03:36:45;;;;;;;;;;;22.30;45.40;21.10;100122.00;;;;5079968;28;19923;-71
2022/09/26 03:39:31;;;;;;;;;;;22.30;45.50;21.10;100125.00;;;;5083088;28;19916;-71
2022/09/26 03:42:17;;;;;;;;;;;22.30;45.40;21.10;100119.00;;;;5079325;28;19923;-71
2022/09/26 03:45:06;;;;;;;;;;;22.30;45.40;21.10;100108.00;;;;5080266;28;19947;-70
2022/09/26 03:47:56;;;;;;;;;;;22.30;45.50;21.10;100109.00;;;;5071134;28;19924;-71
2022/09/26 03:50:42;;;;;;;;;;;22.30;45.50;21.10;100107.00;;;;5077750;28;20399;-71
2022/09/26 03:53:31;;;;;;;;;;;22.30;45.40;21.10;100104.00;;;;5083273;28;19916;-71
2022/09/26 03:56:18;;;;;;;;;;;22.20;45.40;21.10;100098.00;;;;5076690;28;19917;-71
2022/09/26 03:59:04;;;;;;;;;;;22.30;45.50;21.10;100101.00;;;;5102786;27;19917;-71
2022/09/26 04:01:50;;;;;;;;;;;22.30;45.40;21.10;100097.00;;;;5082551;28;19917;-71
2022/09/26 04:04:36;;;;;;;;;;;22.30;45.40;21.10;100088.00;;;;5078940;28;20736;-71
2022/09/26 04:07:22;;;;;;;;;;;22.30;45.50;21.10;100079.00;;;;5085097;28;20277;-71
2022/09/26 04:10:08;;;;;;;;;;;22.30;45.40;21.10;100079.00;;;;5083382;28;19990;-71
2022/09/26 04:12:55;;;;;;;;;;;22.30;45.50;21.10;100075.00;;;;5085110;28;20373;-71
2022/09/26 04:15:42;;;;;;;;;;;22.30;45.40;21.10;100070.00;;;;5081017;28;19920;-71
2022/09/26 04:18:28;;;;;;;;;;;22.30;45.40;21.10;100062.00;;;;5081855;28;20575;-71
2022/09/26 04:21:14;;;;;;;;;;;22.30;45.50;21.10;100057.00;;;;5095455;27;19927;-71
2022/09/26 04:24:00;;;;;;;;;;;22.30;45.40;21.10;100057.00;;;;5077079;28;19920;-71
2022/09/26 04:26:47;;;;;;;;;;;22.30;45.50;21.10;100056.00;;;;5065130;28;20368;-71
2022/09/26 04:29:33;;;;;;;;;;;22.30;45.50;21.10;100050.00;;;;5076924;28;19920;-71
2022/09/26 04:32:18;;;;;;;;;;;22.30;45.50;21.10;100038.00;;;;5078469;28;19920;-71
2022/09/26 04:35:05;;;;;;;;;;;22.40;45.50;21.10;100043.00;;;;5078229;28;19965;-71
2022/09/26 04:37:51;;;;;;;;;;;22.30;45.50;21.10;100034.00;;;;5077910;28;19928;-71
2022/09/26 04:40:37;;;;;;;;;;;22.20;45.40;21.10;100030.00;;;;5077664;28;19916;-71
2022/09/26 04:43:23;;;;;;;;;;;22.30;45.40;21.10;100023.00;;;;5075516;28;19924;-71
2022/09/26 04:46:20;;;;;;;;;;;22.30;45.40;21.10;100015.00;;;;5065175;28;19916;-71
2022/09/26 04:49:07;;;;;;;;;;;22.30;45.50;21.10;100005.00;;;;5074774;28;20137;-71
2022/09/26 04:51:54;;;;;;;;;;;22.30;45.40;21.00;100005.00;;;;5084087;28;19924;-71
2022/09/26 04:54:40;;;;;;;;;;;22.30;45.40;21.00;100011.00;;;;5084582;28;19920;-70
2022/09/26 04:57:26;;;;;;;;;;;22.30;45.50;21.00;99993.00;;;;5082528;28;20328;-71
2022/09/26 05:00:13;;;;;;;;;;;22.30;45.40;21.00;99989.00;;;;5078041;28;19916;-71
2022/09/26 05:02:59;;;;;;;;;;;22.30;45.40;21.00;99985.00;;;;5075752;28;20011;-70
2022/09/26 05:05:46;;;;;;;;;;;22.20;45.40;21.00;99982.00;;;;5077146;28;19927;-70
2022/09/26 05:08:32;;;;;;;;;;;22.20;45.40;21.00;99983.00;;;;5067778;28;19916;-71
2022/09/26 05:11:20;;;;;;;;;;;22.20;45.40;21.00;99983.00;;;;5091457;28;19920;-71
2022/09/26 05:14:07;;;;;;;;;;;22.20;46.10;21.00;99978.00;;;;5079229;28;19924;-71
2022/09/26 05:16:53;;;;;;;;;;;22.20;45.40;21.00;99981.00;;;;5078451;28;20582;-71
2022/09/26 05:19:41;;;;;;;;;;;22.20;45.40;21.00;99971.00;;;;5080067;28;20384;-71
2022/09/26 05:22:30;;;;;;;;;;;22.20;45.40;21.00;99967.00;;;;5080328;28;20368;-71
2022/09/26 05:28:21;;;;;;;;;;;22.20;45.40;21.00;99967.00;;;;5076277;28;19916;-71
2022/09/26 05:31:07;;;;;;;;;;;22.20;45.50;21.00;99972.00;;;;5088287;27;20129;-71
2022/09/26 05:33:56;;;;;;;;;;;22.20;45.40;21.00;99969.00;;;;5082869;28;20019;-71
2022/09/26 05:36:42;;;;;;;;;;;22.20;45.50;21.00;99962.00;;;;5073442;28;19963;-71
2022/09/26 05:42:32;;;;;;;;;;;22.20;45.50;21.00;99957.00;;;;5072263;28;20359;-71
2022/09/26 05:45:18;;;;;;;;;;;22.20;45.40;20.90;99957.00;;;;5074074;28;19923;-71
2022/09/26 05:48:04;;;;;;;;;;;22.20;45.40;20.90;99956.00;;;;5082134;28;19916;-71
2022/09/26 05:50:51;;;;;;;;;;;22.20;45.50;20.90;99950.00;;;;5078656;28;20387;-71
2022/09/26 05:53:40;;;;;;;;;;;22.20;45.40;20.90;99955.00;;;;5057664;28;20278;-71
2022/09/26 05:56:26;;;;;;;;;;;22.10;45.40;20.90;99955.00;;;;5075785;28;19920;-71
2022/09/26 05:59:12;;;;;;;;;;;22.10;45.40;20.90;99953.00;;;;5072157;28;19927;-70
2022/09/26 06:01:58;;;;;;;;;;;22.20;45.40;20.90;99947.00;;;;5083011;28;19923;-70
2022/09/26 06:04:44;;;;;;;;;;;22.10;45.40;20.90;99940.00;;;;5078155;28;20015;-70
2022/09/26 06:07:31;;;;;;;;;;;22.20;45.40;20.90;99936.00;;;;5076915;28;19931;-70
2022/09/26 06:10:17;;;;;;;;;;;22.10;45.40;20.90;99933.00;;;;5081632;28;20361;-70
2022/09/26 06:13:04;;;;;;;;;;;22.10;45.40;20.90;99928.00;;;;5091131;28;20307;-70
2022/09/26 06:15:50;;;;;;;;;;;22.10;45.40;20.90;99932.00;;;;5091085;28;19922;-70
2022/09/26 06:18:37;;;;;;;;;;;22.20;45.40;20.90;99916.00;;;;5079352;28;19930;-70
2022/09/26 06:21:23;;;;;;;;;;;22.10;45.40;20.90;99915.00;;;;5077432;28;19920;-70
2022/09/26 06:24:09;;;;;;;;;;;22.10;45.40;20.90;99909.00;;;;5084355;28;19924;-70
2022/09/26 06:26:55;;;;;;;;;;;22.10;45.40;20.90;99905.00;;;;5080361;28;19916;-70
2022/09/26 06:29:41;;;;;;;;;;;22.10;45.40;20.90;99906.00;;;;5073891;28;19931;-70
2022/09/26 06:32:28;;;;;;;;;;;22.10;45.40;20.90;99902.00;;;;5059787;28;19920;-70
2022/09/26 06:35:14;;;;;;;;;;;22.10;45.40;20.90;99894.00;;;;5082454;28;19916;-70
2022/09/26 06:38:00;;;;;;;;;;;22.10;45.40;20.90;99884.00;;;;5080071;28;19920;-70
2022/09/26 06:40:46;;;;;;;;;;;22.10;45.40;20.90;99880.00;;;;5080524;28;19927;-70
2022/09/26 06:43:32;;;;;;;;;;;22.10;45.40;20.90;99873.00;;;;5079837;28;19920;-70
2022/09/26 06:46:19;;;;;;;;;;;22.10;45.30;20.90;99868.00;;;;5077178;28;20259;-70
2022/09/26 06:49:05;;;;;;;;;;;22.10;45.40;20.90;99855.00;;;;5082338;28;20011;-70
2022/09/26 06:51:51;;;;;;;;;;;22.10;45.40;20.90;99847.00;;;;5077937;28;20336;-70
2022/09/26 06:54:37;;;;;;;;;;;22.10;45.40;20.90;99849.00;;;;5066725;28;19917;-70
2022/09/26 06:57:23;;;;;;;;;;;22.10;45.30;20.90;99842.00;;;;5082456;28;19920;-70
2022/09/26 07:00:11;;;;;;;;;;;22.10;45.30;20.90;99843.00;;;;5083401;28;19939;-70
2022/09/26 07:02:57;;;;;;;;;;;22.10;45.30;20.90;99850.00;;;;5080101;28;19934;-70
2022/09/26 07:05:44;;;;;;;;;;;22.10;45.30;20.90;99853.00;;;;5078183;28;20388;-70
2022/09/26 07:08:30;;;;;;;;;;;22.10;45.30;20.90;99843.00;;;;5077270;28;19927;-70
2022/09/26 07:11:15;;;;;;;;;;;22.10;45.30;20.90;99836.00;;;;5085158;28;20093;-70
2022/09/26 07:14:01;;;;;;;;;;;22.10;45.30;20.90;99837.00;;;;5079620;28;20335;-70
2022/09/26 07:16:49;;;;;;;;;;;22.10;46.00;20.90;99828.00;;;;5063243;28;19920;-70
2022/09/26 07:19:35;;;;;;;;;;;22.10;45.40;20.90;99818.00;;;;5100207;27;19916;-70
2022/09/26 07:22:21;;;;;;;;;;;22.10;45.30;20.90;99804.00;;;;5085484;28;19966;-70
2022/09/26 07:25:09;;;;;;;;;;;22.10;45.30;20.90;99801.00;;;;5068445;28;19924;-70
2022/09/26 07:27:55;;;;;;;;;;;22.10;45.30;20.90;99806.00;;;;5078391;28;19925;-70
2022/09/26 07:30:41;;;;;;;;;;;22.00;45.30;20.80;99796.00;;;;5094073;27;20262;-70
2022/09/26 07:33:27;;;;;;;;;;;22.10;45.30;20.80;99798.00;;;;5084346;28;19959;-70
2022/09/26 07:36:14;;;;;;;;;;;22.00;45.20;20.80;99794.00;;;;5078615;28;19924;-70
2022/09/26 07:39:01;;;;;;;;;;;22.10;45.30;20.80;99802.00;;;;5084313;28;19923;-70
2022/09/26 07:41:48;;;;;;;;;;;22.10;45.30;20.80;99801.00;;;;5084115;28;19916;-70
2022/09/26 07:44:35;;;;;;;;;;;22.10;45.30;20.80;99787.00;;;;5083190;28;19963;-70
2022/09/26 07:50:25;;;;;;;;;;;22.00;45.30;20.80;99794.00;;;;5085870;28;19916;-70
2022/09/26 07:53:11;;;;;;;;;;;22.10;45.30;20.80;99793.00;;;;5081630;28;19923;-70
2022/09/26 07:56:09;;;;;;;;;;;22.00;45.30;20.80;99793.00;;;;5079469;28;19994;-70
2022/09/26 07:58:55;;;;;;;;;;;22.00;45.30;20.80;99791.00;;;;5087725;28;19920;-70
2022/09/26 08:01:41;;;;;;;;;;;22.00;45.30;20.80;99788.00;;;;5072799;28;19940;-70
2022/09/26 08:04:27;;;;;;;;;;;22.00;45.40;20.80;99785.00;;;;5078490;28;20263;-70
2022/09/26 08:07:13;;;;;;;;;;;22.00;45.30;20.80;99787.00;;;;5078844;28;19930;-70
2022/09/26 08:10:01;;;;;;;;;;;21.90;45.30;20.80;99778.00;;;;5084585;28;20443;-70
2022/09/26 08:12:47;;;;;;;;;;;22.00;45.30;20.80;99785.00;;;;5083844;28;19928;-70
2022/09/26 08:15:33;;;;;;;;;;;22.00;45.30;20.80;99777.00;;;;5081139;28;19916;-70
2022/09/26 08:18:19;;;;;;;;;;;22.00;45.30;20.80;99776.00;;;;5076279;28;19943;-70
2022/09/26 08:21:06;;;;;;;;;;;22.00;45.30;20.80;99767.00;;;;5084714;28;19922;-70
2022/09/26 08:23:52;;;;;;;;;;;22.00;45.30;20.80;99773.00;;;;5097239;27;20378;-70
2022/09/26 08:26:39;;;;;;;;;;;22.00;45.20;20.80;99765.00;;;;5060571;28;20034;-70
2022/09/26 08:29:25;;;;;;;;;;;22.00;45.20;20.80;99766.00;;;;5074060;28;20017;-70
2022/09/26 08:32:11;;;;;;;;;;;22.00;45.20;20.70;99761.00;;;;5100065;28;19916;-70
2022/09/26 08:34:57;;;;;;;;;;;22.00;45.10;20.70;99754.00;;;;5076150;28;20884;-70
2022/09/26 08:37:43;;;;;;;;;;;22.00;45.20;20.70;99756.00;;;;5098517;27;19920;-69
2022/09/26 08:40:37;;;;;;;;;;;21.90;45.10;20.70;99745.00;;;;5078885;28;19920;-70
2022/09/26 08:44:00;;;;;;;;;;;22.00;45.20;20.70;99754.00;;;;5076343;28;20479;-70
2022/09/26 08:47:00;;;;;;;;;;;21.90;45.10;20.70;99746.00;;;;5078778;28;20231;-69
2022/09/26 08:50:24;;;;;;;;;;;21.90;45.20;20.70;99752.00;;;;5068078;28;19921;-69
2022/09/26 08:53:12;;;;;;;;;;;21.90;45.20;20.70;99752.00;;;;5077915;28;19916;-70
2022/09/26 08:55:58;;;;;;;;;;;21.90;45.20;20.70;99744.00;;;;5086790;28;19915;-70
2022/09/26 08:58:47;;;;;;;;;;;21.90;45.20;20.60;99741.00;;;;5074903;28;20309;-70
2022/09/26 09:01:36;;;;;;;;;;;21.90;45.20;20.60;99730.00;;;;5064649;28;20539;-69
2022/09/26 09:04:25;;;;;;;;;;;21.90;45.20;20.60;99731.00;;;;5072582;28;19928;-69
2022/09/26 09:07:19;;;;;;;;;;;21.90;45.20;20.60;99743.00;;;;5090385;27;20251;-69
2022/09/26 09:10:07;;;;;;;;;;;21.90;45.20;20.60;99736.00;;;;5083772;28;20257;-69
2022/09/26 09:13:15;;;;;;;;;;;21.80;45.10;20.60;99739.00;;;;5088810;28;19965;-69
2022/09/26 09:16:32;;;;;;;;;;;21.80;45.10;20.60;99728.00;;;;5078139;28;19920;-69
2022/09/26 09:19:40;;;;;;;;;;;21.80;45.20;20.60;99727.00;;;;5096852;27;19916;-70
2022/09/26 09:23:05;;;;;;;;;;;21.80;45.20;20.60;99724.00;;;;5082225;28;19919;-70
2022/09/26 09:26:26;;;;;;;;;;;21.80;45.20;20.50;99718.00;;;;5061078;28;19924;-70
2022/09/26 09:29:38;;;;;;;;;;;21.80;45.20;20.50;99716.00;;;;5067279;28;19932;-70
2022/09/26 09:32:27;;;;;;;;;;;21.80;45.20;20.50;99719.00;;;;5067871;28;19916;-70
2022/09/26 09:35:14;;;;;;;;;;;21.80;45.30;20.50;99714.00;;;;5071520;28;20385;-70
2022/09/26 09:38:00;;;;;;;;;;;21.80;45.30;20.60;99706.00;;;;5080039;28;20361;-70
2022/09/26 09:41:02;;;;;;;;;;;21.80;45.30;20.60;99700.00;;;;5070210;28;19927;-70
2022/09/26 09:43:56;;;;;;;;;;;21.80;46.00;20.60;99697.00;;;;5101419;27;20047;-70
2022/09/26 09:46:42;;;;;;;;;;;21.80;45.30;20.50;99695.00;;;;5093577;28;19930;-70
2022/09/26 09:49:29;;;;;;;;;;;21.80;45.30;20.50;99689.00;;;;5076669;28;20386;-70
2022/09/26 09:52:39;;;;;;;;;;;21.70;45.30;20.50;99674.00;;;;5096442;27;19923;-70
2022/09/26 09:56:11;;;;;;;;;;;21.80;45.30;20.60;99669.00;;;;5084375;28;20361;-70
2022/09/26 09:59:16;;;;;;;;;;;21.80;45.30;20.50;99673.00;;;;5070504;28;19923;-70
2022/09/26 10:02:27;;;;;;;;;;;21.80;45.30;20.60;99665.00;;;;5072176;28;19999;-70
2022/09/26 10:05:35;;;;;;;;;;;21.70;45.30;20.50;99653.00;;;;5082969;28;19958;-70
2022/09/26 10:08:32;;;;;;;;;;;21.80;45.40;20.50;99648.00;;;;5092872;28;20147;-70
2022/09/26 10:11:40;;;;;;;;;;;21.80;45.40;20.60;99642.00;;;;5080358;28;20049;-70
2022/09/26 10:14:36;;;;;;;;;;;21.70;45.40;20.50;99625.00;;;;5070520;28;19916;-70
2022/09/26 10:17:22;;;;;;;;;;;21.80;45.50;20.50;99624.00;;;;5079090;28;19991;-71
2022/09/26 10:20:38;;;;;;;;;;;21.70;45.40;20.60;99615.00;;;;5065245;28;19916;-71
2022/09/26 10:23:31;;;;;;;;;;;21.80;45.50;20.60;99611.00;;;;5079085;28;19931;-71
2022/09/26 10:26:22;;;;;;;;;;;21.80;45.50;20.50;99598.00;;;;5074767;28;19920;-70
2022/09/26 10:29:33;;;;;;;;;;;21.80;45.50;20.50;99608.00;;;;5092466;28;19920;-71
2022/09/26 10:32:19;;;;;;;;;;;21.80;45.50;20.50;99606.00;;;;5076835;28;19917;-70
2022/09/26 10:35:24;;;;;;;;;;;21.80;45.50;20.50;99601.00;;;;5087041;28;19916;-70
2022/09/26 10:38:25;;;;;;;;;;;21.70;45.50;20.50;99599.00;;;;5083618;28;19924;-70
2022/09/26 10:41:21;;;;;;;;;;;21.80;45.50;20.50;99599.00;;;;5072777;28;20344;-70
2022/09/26 10:44:24;;;;;;;;;;;21.80;45.50;20.50;99611.00;;;;5089717;28;20081;-70
2022/09/26 10:47:18;;;;;;;;;;;21.70;45.60;20.50;99599.00;;;;5080250;28;19920;-70
2022/09/26 10:50:07;;;;;;;;;;;21.80;45.60;20.50;99605.00;;;;5079285;28;19938;-70
2022/09/26 10:52:56;;;;;;;;;;;21.80;45.70;20.50;99606.00;;;;5078274;28;20381;-70
2022/09/26 10:55:44;;;;;;;;;;;21.70;45.60;20.50;99605.00;;;;5093656;28;19923;-70
2022/09/26 10:58:31;;;;;;;;;;;21.70;45.60;20.50;99608.00;;;;5100973;28;20015;-70
2022/09/26 11:01:19;;;;;;;;;;;21.70;45.60;20.50;99603.00;;;;5095757;28;19927;-70
2022/09/26 11:07:37;;;;;;;;;;;21.70;45.70;20.50;99592.00;;;;5082758;28;19927;-70
2022/09/26 11:10:25;;;;;;;;;;;21.80;45.70;20.50;99582.00;;;;5104582;28;19926;-70
2022/09/26 11:13:16;;;;;;;;;;;21.70;45.70;20.50;99583.00;;;;5096733;28;19930;-70
2022/09/26 11:16:11;;;;;;;;;;;21.70;45.70;20.50;99572.00;;;;5093492;28;19920;-70
2022/09/26 11:19:14;;;;;;;;;;;21.70;45.70;20.50;99570.00;;;;5093512;28;19930;-70
2022/09/26 11:22:24;;;;;;;;;;;21.70;46.50;20.50;99567.00;;;;5098231;28;19923;-70
2022/09/26 11:25:14;;;;;;;;;;;21.70;45.80;20.50;99562.00;;;;5098921;28;19930;-70
2022/09/26 11:28:07;;;;;;;;;;;21.70;45.80;20.50;99557.00;;;;5094293;28;20448;-70
2022/09/26 11:30:55;;;;;;;;;;;21.70;46.50;20.50;99560.00;;;;5094910;28;19927;-70
2022/09/26 11:33:44;;;;;;;;;;;21.70;45.80;20.50;99545.00;;;;5087728;28;19989;-70
2022/09/26 11:36:44;;;;;;;;;;;21.70;45.90;20.50;99542.00;;;;5083629;28;19995;-70
2022/09/26 11:39:45;;;;;;;;;;;21.70;45.90;20.50;99541.00;;;;5107699;27;19923;-70
2022/09/26 11:43:07;;;;;;;;;;;21.60;45.80;20.50;99534.00;;;;5095320;28;20141;-70
2022/09/26 11:46:03;;;;;;;;;;;21.70;46.60;20.50;99529.00;;;;5088491;28;20347;-70
2022/09/26 11:48:52;;;;;;;;;;;21.70;45.90;20.50;99516.00;;;;5095409;28;19923;-70
2022/09/26 11:51:54;;;;;;;;;;;21.70;45.90;20.50;99520.00;;;;5094524;28;20796;-70
2022/09/26 11:54:55;;;;;;;;;;;21.70;45.90;20.50;99512.00;;;;5104721;28;19926;-70
2022/09/26 11:57:52;;;;;;;;;;;21.70;45.90;20.60;99521.00;;;;5089627;28;19967;-70
2022/09/26 12:00:57;;;;;;;;;;;21.70;45.90;20.60;99514.00;;;;5103584;28;19955;-70
2022/09/26 12:04:05;;;;;;;;;;;21.70;46.00;20.50;99503.00;;;;5103109;28;19924;-70
2022/09/26 12:06:52;;;;;;;;;;;21.70;46.00;20.50;99496.00;;;;5099135;28;19951;-70
2022/09/26 12:09:57;;;;;;;;;;;21.70;46.00;20.60;99484.00;;;;5100278;28;19922;-70
2022/09/26 12:12:46;;;;;;;;;;;21.70;46.00;20.50;99483.00;;;;5095928;28;19920;-70
2022/09/26 12:15:35;;;;;;;;;;;21.80;46.10;20.60;99479.00;;;;5094732;28;19932;-70
2022/09/26 12:19:05;;;;;;;;;;;21.70;46.00;20.60;99470.00;;;;5109508;27;19920;-70
2022/09/26 12:22:30;;;;;;;;;;;21.70;46.00;20.50;99470.00;;;;5081395;28;20003;-70
2022/09/26 12:25:34;;;;;;;;;;;21.70;46.00;20.50;99471.00;;;;5058288;28;20202;-70
2022/09/26 12:28:53;;;;;;;;;;;21.70;46.00;20.50;99461.00;;;;5089940;27;19921;-70
2022/09/26 12:31:54;;;;;;;;;;;21.70;46.00;20.50;99453.00;;;;5081839;28;19916;-70
2022/09/26 12:35:03;;;;;;;;;;;21.80;46.00;20.50;99454.00;;;;5082771;28;19981;-70
2022/09/26 12:38:14;;;;;;;;;;;21.70;46.00;20.50;99446.00;;;;5086296;28;19922;-70
2022/09/26 12:41:23;;;;;;;;;;;21.70;46.00;20.50;99433.00;;;;5109935;27;20422;-70
2022/09/26 12:44:46;;;;;;;;;;;21.70;46.00;20.50;99441.00;;;;5099821;28;19943;-70
2022/09/26 12:47:56;;;;;;;;;;;21.70;46.10;20.50;99433.00;;;;5108224;27;19919;-70
2022/09/26 12:51:22;;;;;;;;;;;21.70;46.10;20.50;99432.00;;;;5091240;28;19926;-70
2022/09/26 12:54:31;;;;;;;;;;;21.70;46.10;20.50;99420.00;;;;5100537;28;19994;-70
2022/09/26 12:57:42;;;;;;;;;;;21.70;46.10;20.50;99428.00;;;;5083386;28;19924;-70
2022/09/26 13:00:39;;;;;;;;;;;21.70;46.10;20.50;99430.00;;;;5081163;28;20142;-70
2022/09/26 13:03:37;;;;;;;;;;;21.70;46.10;20.50;99415.00;;;;5097375;28;19929;-70
2022/09/26 13:06:40;;;;;;;;;;;21.70;46.10;20.50;99413.00;;;;5091764;28;19916;-70
2022/09/26 13:09:50;;;;;;;;;;;21.70;46.10;20.50;99406.00;;;;5110380;27;19920;-70
2022/09/26 13:12:50;;;;;;;;;;;21.70;46.10;20.50;99407.00;;;;5097702;28;20007;-70
2022/09/26 13:16:12;;;;;;;;;;;21.70;46.10;20.50;99404.00;;;;5106797;27;19942;-70
2022/09/26 13:19:01;;;;;;;;;;;21.70;46.10;20.50;99402.00;;;;5108109;27;19923;-70
2022/09/26 13:22:02;;;;;;;;;;;21.70;46.20;20.50;99398.00;;;;5107079;27;19920;-70
2022/09/26 13:25:18;;;;;;;;;;;21.70;46.20;20.50;99391.00;;;;5095877;28;19920;-70
2022/09/26 13:28:09;;;;;;;;;;;21.70;46.20;20.50;99398.00;;;;5095730;28;20014;-70
2022/09/26 13:31:17;;;;;;;;;;;21.70;46.20;20.50;99392.00;;;;5075140;28;20324;-70
2022/09/26 13:34:33;;;;;;;;;;;21.70;46.30;20.50;99392.00;;;;5081537;28;19916;-70
2022/09/26 13:37:52;;;;;;;;;;;21.70;46.20;20.50;99382.00;;;;5080686;28;19995;-70
2022/09/26 13:40:53;;;;;;;;;;;21.70;46.20;20.50;99382.00;;;;5106108;27;19927;-70
2022/09/26 13:44:07;;;;;;;;;;;21.70;46.30;20.50;99374.00;;;;5096712;28;19920;-70
2022/09/26 13:47:12;;;;;;;;;;;21.70;46.30;20.50;99373.00;;;;5081633;28;19920;-70
2022/09/26 13:50:01;;;;;;;;;;;21.70;46.30;20.50;99373.00;;;;5100218;28;19931;-70
2022/09/26 13:53:10;;;;;;;;;;;21.70;47.00;20.50;99374.00;;;;5095380;28;20055;-70
2022/09/26 13:56:33;;;;;;;;;;;21.70;46.40;20.50;99372.00;;;;5105968;27;19916;-70
2022/09/26 13:59:31;;;;;;;;;;;21.70;46.30;20.50;99380.00;;;;5095339;28;20410;-70
2022/09/26 14:02:25;;;;;;;;;;;21.70;46.40;20.50;99373.00;;;;5079425;28;19923;-70
2022/09/26 14:05:17;;;;;;;;;;;21.70;46.40;20.50;99370.00;;;;5107349;27;20364;-70
2022/09/26 14:11:47;;;;;;;;;;;21.70;46.50;20.50;99361.00;;;;5082073;28;19920;-70
2022/09/26 14:14:38;;;;;;;;;;;21.70;46.50;20.50;99370.00;;;;5106732;27;19988;-70
2022/09/26 14:17:43;;;;;;;;;;;21.70;46.50;20.50;99355.00;;;;5106299;27;19922;-70
2022/09/26 14:20:37;;;;;;;;;;;21.70;46.50;20.50;99352.00;;;;5092577;28;20332;-70